This demonstration page uses our WeatherBlox Daily Observations layout. Learn more.

41.55636, -103.73856

Hourly Observations for August 25, 2016

Temp ( °F °C ) Dew Point ( °F °C ) Humidity (%) Winds ( mph kmh ) Pressure ( in mb ) Visibility ( mi km ) Precip ( " mm )
12:53 am 00:53 Clear 54 12.2 47 8.3 77 77 SSE 6 9 30.13 1020 10 16.0934 0 0
1:53 am 01:53 Clear 50 10 46 7.8 86 86 ENE 5 7 30.14 1021 10 16.0934 0 0
2:53 am 02:53 Clear 50 10 47 8.3 89 89 Calm 30.14 1021 10 16.0934 0 0
3:53 am 03:53 Cloudy 52 11.1 49 9.4 89 89 NNW 5 7 30.14 1021 10 16.0934 0 0
4:53 am 04:53 Cloudy 51 10.6 48 8.9 89 89 Calm 30.15 1021 10 16.0934 0 0
5:53 am 05:53 Cloudy 52 11.1 48 8.9 86 86 Calm 30.16 1022 10 16.0934 0 0
6:53 am 06:53 Cloudy 54 12.2 48 8.9 80 80 ENE 6 9 30.19 1023 10 16.0934 0 0
7:53 am 07:53 Mostly Cloudy 55 12.8 46 7.8 72 72 ENE 8 13 30.22 1023 10 16.0934 0 0
8:53 am 08:53 Cloudy 58 14.4 44 6.7 60 60 ENE 10 17 30.25 1024 10 16.0934 0 0
9:53 am 09:53 Partly Cloudy 61 16.1 44 6.7 54 54 ENE 10 17 30.25 1024 10 16.0934 0 0
10:53 am 10:53 Sunny 63 17.2 45 7.2 52 52 ENE 10 17 30.24 1024 10 16.0934 0 0
11:53 am 11:53 Mostly Sunny 65 18.3 44 6.7 47 47 E 10 17 30.22 1023 10 16.0934 0 0
12:53 pm 12:53 Mostly Sunny 67 19.4 45 7.2 45 45 ESE 9 15 30.2 1023 10 16.0934 0 0
1:53 pm 13:53 Partly Cloudy 68 20 45 7.2 44 44 VRB 6 9 30.2 1023 10 16.0934 0 0
2:53 pm 14:53 Mostly Cloudy 71 21.7 46 7.8 41 41 E 9 15 30.16 1021 10 16.0934 0 0
3:53 pm 15:53 Sunny 71 21.7 46 7.8 41 41 NE 7 11 30.13 1020 10 16.0934 0 0
4:53 pm 16:53 Sunny 71 21.7 46 7.8 41 41 E 10 17 30.11 1020 10 16.0934 0 0
5:53 pm 17:53 Mostly Sunny 72 22.2 46 7.8 40 40 E 10 17 30.09 1019 10 16.0934 0 0
6:53 pm 18:53 Sunny 68 20 49 9.4 51 51 ENE 9 15 30.09 1019 10 16.0934 0 0
7:53 pm 19:53 Clear 61 16.1 48 8.9 63 63 ENE 8 13 30.1 1019 10 16.0934 0 0
8:53 pm 20:53 Clear 62 16.7 47 8.3 58 58 ENE 12 19 30.1 1019 10 16.0934 0 0
9:53 pm 21:53 Clear 60 15.6 46 7.8 60 60 ENE 9 15 30.1 1019 10 16.0934 0 0
10:53 pm 22:53 Cloudy 59 15 47 8.3 64 64 E 9 15 30.11 1020 10 16.0934 0 0
11:53 pm 23:53 Mostly Cloudy 58 14.4 47 8.3 67 67 ENE 10 17 30.1 1019 10 16.0934 0 0

Powered by AerisWeather